sensor_id;sensor_type;location;lat;lon;timestamp;temperature;humidity
61201;DHT22;47065;52.898;6.992;2023-08-12T00:00:10;19.70;99.90
61201;DHT22;47065;52.898;6.992;2023-08-12T00:02:43;19.60;99.90
61201;DHT22;47065;52.898;6.992;2023-08-12T00:05:10;19.60;99.90
61201;DHT22;47065;52.898;6.992;2023-08-12T00:07:39;19.60;99.90
61201;DHT22;47065;52.898;6.992;2023-08-12T00:10:09;19.50;99.90
61201;DHT22;47065;52.898;6.992;2023-08-12T00:12:36;19.50;99.90
61201;DHT22;47065;52.898;6.992;2023-08-12T00:15:03;19.50;99.90
61201;DHT22;47065;52.898;6.992;2023-08-12T00:17:30;19.50;99.90
61201;DHT22;47065;52.898;6.992;2023-08-12T00:19:56;19.50;99.90
61201;DHT22;47065;52.898;6.992;2023-08-12T00:22:22;19.50;99.90
61201;DHT22;47065;52.898;6.992;2023-08-12T00:24:48;19.50;99.90
61201;DHT22;47065;52.898;6.992;2023-08-12T00:27:14;19.40;99.90
61201;DHT22;47065;52.898;6.992;2023-08-12T00:29:39;19.40;99.90
61201;DHT22;47065;52.898;6.992;2023-08-12T00:32:05;19.40;99.90
61201;DHT22;47065;52.898;6.992;2023-08-12T00:34:31;19.40;99.90
61201;DHT22;47065;52.898;6.992;2023-08-12T00:36:57;19.30;99.90
61201;DHT22;47065;52.898;6.992;2023-08-12T00:39:22;19.30;99.90
61201;DHT22;47065;52.898;6.992;2023-08-12T00:41:48;19.30;99.90
61201;DHT22;47065;52.898;6.992;2023-08-12T00:44:14;19.30;99.90
61201;DHT22;47065;52.898;6.992;2023-08-12T00:46:41;19.30;99.90
61201;DHT22;47065;52.898;6.992;2023-08-12T00:49:08;19.30;99.90
61201;DHT22;47065;52.898;6.992;2023-08-12T00:51:35;19.30;99.90
61201;DHT22;47065;52.898;6.992;2023-08-12T00:54:04;19.30;99.90
61201;DHT22;47065;52.898;6.992;2023-08-12T00:56:31;19.30;99.90
61201;DHT22;47065;52.898;6.992;2023-08-12T00:58:59;19.20;99.90
61201;DHT22;47065;52.898;6.992;2023-08-12T01:01:25;19.20;99.90
61201;DHT22;47065;52.898;6.992;2023-08-12T01:03:51;19.20;99.90
61201;DHT22;47065;52.898;6.992;2023-08-12T01:06:17;19.20;99.90
61201;DHT22;47065;52.898;6.992;2023-08-12T01:08:43;19.20;99.90
61201;DHT22;47065;52.898;6.992;2023-08-12T01:11:19;19.20;99.90
61201;DHT22;47065;52.898;6.992;2023-08-12T01:13:58;19.10;99.90
61201;DHT22;47065;52.898;6.992;2023-08-12T01:16:28;19.10;99.90
61201;DHT22;47065;52.898;6.992;2023-08-12T01:18:56;19.10;99.90
61201;DHT22;47065;52.898;6.992;2023-08-12T01:21:24;19.10;99.90
61201;DHT22;47065;52.898;6.992;2023-08-12T01:23:52;19.10;99.90
61201;DHT22;47065;52.898;6.992;2023-08-12T01:26:18;19.10;99.90
61201;DHT22;47065;52.898;6.992;2023-08-12T01:28:44;19.10;99.90
61201;DHT22;47065;52.898;6.992;2023-08-12T01:31:23;19.10;99.90
61201;DHT22;47065;52.898;6.992;2023-08-12T01:33:58;19.10;99.90
61201;DHT22;47065;52.898;6.992;2023-08-12T01:36:28;19.10;99.90
61201;DHT22;47065;52.898;6.992;2023-08-12T01:38:55;19.10;99.90
61201;DHT22;47065;52.898;6.992;2023-08-12T01:41:23;19.10;99.90
61201;DHT22;47065;52.898;6.992;2023-08-12T01:43:49;19.10;99.90
61201;DHT22;47065;52.898;6.992;2023-08-12T01:46:14;19.10;99.90
61201;DHT22;47065;52.898;6.992;2023-08-12T01:48:40;19.10;99.90
61201;DHT22;47065;52.898;6.992;2023-08-12T01:51:06;19.00;99.90
61201;DHT22;47065;52.898;6.992;2023-08-12T01:53:31;19.00;99.90
61201;DHT22;47065;52.898;6.992;2023-08-12T01:55:57;19.00;99.90
61201;DHT22;47065;52.898;6.992;2023-08-12T01:58:23;19.00;99.90
61201;DHT22;47065;52.898;6.992;2023-08-12T02:00:48;19.00;99.90
61201;DHT22;47065;52.898;6.992;2023-08-12T02:03:14;19.00;99.90
61201;DHT22;47065;52.898;6.992;2023-08-12T02:05:39;18.90;99.90
61201;DHT22;47065;52.898;6.992;2023-08-12T02:08:06;18.90;99.90
61201;DHT22;47065;52.898;6.992;2023-08-12T02:10:32;18.90;99.90
61201;DHT22;47065;52.898;6.992;2023-08-12T02:12:58;18.90;99.90
61201;DHT22;47065;52.898;6.992;2023-08-12T02:15:23;18.90;99.90
61201;DHT22;47065;52.898;6.992;2023-08-12T02:17:49;18.90;99.90
61201;DHT22;47065;52.898;6.992;2023-08-12T02:20:15;18.90;99.90
61201;DHT22;47065;52.898;6.992;2023-08-12T02:22:40;18.90;99.90
61201;DHT22;47065;52.898;6.992;2023-08-12T02:25:06;18.80;99.90
61201;DHT22;47065;52.898;6.992;2023-08-12T02:27:32;18.80;99.90
61201;DHT22;47065;52.898;6.992;2023-08-12T02:29:57;18.80;99.90
61201;DHT22;47065;52.898;6.992;2023-08-12T02:32:23;18.80;99.90
61201;DHT22;47065;52.898;6.992;2023-08-12T02:34:49;18.80;99.90
61201;DHT22;47065;52.898;6.992;2023-08-12T02:37:14;18.80;99.90
61201;DHT22;47065;52.898;6.992;2023-08-12T02:39:40;18.80;99.90
61201;DHT22;47065;52.898;6.992;2023-08-12T02:42:06;18.70;99.90
61201;DHT22;47065;52.898;6.992;2023-08-12T02:44:31;18.70;99.90
61201;DHT22;47065;52.898;6.992;2023-08-12T02:46:57;18.70;99.90
61201;DHT22;47065;52.898;6.992;2023-08-12T02:49:23;18.80;99.90
61201;DHT22;47065;52.898;6.992;2023-08-12T02:51:48;18.70;99.90
61201;DHT22;47065;52.898;6.992;2023-08-12T02:54:14;18.80;99.90
61201;DHT22;47065;52.898;6.992;2023-08-12T02:56:39;18.70;99.90
61201;DHT22;47065;52.898;6.992;2023-08-12T02:59:05;18.80;99.90
61201;DHT22;47065;52.898;6.992;2023-08-12T03:01:31;18.80;99.90
61201;DHT22;47065;52.898;6.992;2023-08-12T03:03:57;18.80;99.90
61201;DHT22;47065;52.898;6.992;2023-08-12T03:06:22;18.80;99.90
61201;DHT22;47065;52.898;6.992;2023-08-12T03:08:48;18.80;99.90
61201;DHT22;47065;52.898;6.992;2023-08-12T03:11:13;18.80;99.90
61201;DHT22;47065;52.898;6.992;2023-08-12T03:13:39;18.80;99.90
61201;DHT22;47065;52.898;6.992;2023-08-12T03:16:05;18.80;99.90
61201;DHT22;47065;52.898;6.992;2023-08-12T03:18:35;18.80;99.90
61201;DHT22;47065;52.898;6.992;2023-08-12T03:21:06;18.80;99.90
61201;DHT22;47065;52.898;6.992;2023-08-12T03:23:31;18.80;99.90
61201;DHT22;47065;52.898;6.992;2023-08-12T03:25:57;18.80;99.90
61201;DHT22;47065;52.898;6.992;2023-08-12T03:28:23;18.80;99.90
61201;DHT22;47065;52.898;6.992;2023-08-12T03:30:52;18.90;99.90
61201;DHT22;47065;52.898;6.992;2023-08-12T03:33:18;18.90;99.90
61201;DHT22;47065;52.898;6.992;2023-08-12T03:35:48;18.90;99.90
61201;DHT22;47065;52.898;6.992;2023-08-12T03:38:14;18.90;99.90
61201;DHT22;47065;52.898;6.992;2023-08-12T03:40:40;18.90;99.90
61201;DHT22;47065;52.898;6.992;2023-08-12T03:43:06;18.90;99.90
61201;DHT22;47065;52.898;6.992;2023-08-12T03:45:32;18.90;99.90
61201;DHT22;47065;52.898;6.992;2023-08-12T03:47:58;18.90;99.90
61201;DHT22;47065;52.898;6.992;2023-08-12T03:50:24;18.90;99.90
61201;DHT22;47065;52.898;6.992;2023-08-12T03:52:49;18.90;99.90
61201;DHT22;47065;52.898;6.992;2023-08-12T03:55:15;18.90;99.90
61201;DHT22;47065;52.898;6.992;2023-08-12T03:57:40;18.90;99.90
61201;DHT22;47065;52.898;6.992;2023-08-12T04:00:06;18.90;99.90
61201;DHT22;47065;52.898;6.992;2023-08-12T04:02:34;18.80;99.90
61201;DHT22;47065;52.898;6.992;2023-08-12T04:04:59;18.80;99.90
61201;DHT22;47065;52.898;6.992;2023-08-12T04:07:25;18.80;99.90
61201;DHT22;47065;52.898;6.992;2023-08-12T04:09:52;18.80;99.90
61201;DHT22;47065;52.898;6.992;2023-08-12T04:12:18;18.80;99.90
61201;DHT22;47065;52.898;6.992;2023-08-12T04:14:43;18.80;99.90
61201;DHT22;47065;52.898;6.992;2023-08-12T04:17:09;18.80;99.90
61201;DHT22;47065;52.898;6.992;2023-08-12T04:19:35;18.80;99.90
61201;DHT22;47065;52.898;6.992;2023-08-12T04:22:00;18.70;99.90
61201;DHT22;47065;52.898;6.992;2023-08-12T04:24:26;18.70;99.90
61201;DHT22;47065;52.898;6.992;2023-08-12T04:26:51;18.70;99.90
61201;DHT22;47065;52.898;6.992;2023-08-12T04:29:17;18.70;99.90
61201;DHT22;47065;52.898;6.992;2023-08-12T04:31:43;18.70;99.90
61201;DHT22;47065;52.898;6.992;2023-08-12T04:34:08;18.70;99.90
61201;DHT22;47065;52.898;6.992;2023-08-12T04:36:34;18.70;99.90
61201;DHT22;47065;52.898;6.992;2023-08-12T04:38:59;18.60;99.90
61201;DHT22;47065;52.898;6.992;2023-08-12T04:41:25;18.70;99.90
61201;DHT22;47065;52.898;6.992;2023-08-12T04:43:51;18.70;99.90
61201;DHT22;47065;52.898;6.992;2023-08-12T04:46:17;18.70;99.90
61201;DHT22;47065;52.898;6.992;2023-08-12T04:48:43;18.70;99.90
61201;DHT22;47065;52.898;6.992;2023-08-12T04:51:09;18.70;99.90
61201;DHT22;47065;52.898;6.992;2023-08-12T04:53:35;18.70;99.90
61201;DHT22;47065;52.898;6.992;2023-08-12T04:56:01;18.70;99.90
61201;DHT22;47065;52.898;6.992;2023-08-12T04:58:27;18.70;99.90
61201;DHT22;47065;52.898;6.992;2023-08-12T05:00:52;18.70;99.90
61201;DHT22;47065;52.898;6.992;2023-08-12T05:03:18;18.70;99.90
61201;DHT22;47065;52.898;6.992;2023-08-12T05:05:49;18.80;99.90
61201;DHT22;47065;52.898;6.992;2023-08-12T05:08:15;18.80;99.90
61201;DHT22;47065;52.898;6.992;2023-08-12T05:10:40;18.80;99.90
61201;DHT22;47065;52.898;6.992;2023-08-12T05:13:06;18.80;99.90
61201;DHT22;47065;52.898;6.992;2023-08-12T05:15:31;18.80;99.90
61201;DHT22;47065;52.898;6.992;2023-08-12T05:17:57;18.80;99.90
61201;DHT22;47065;52.898;6.992;2023-08-12T05:20:23;18.80;99.90
61201;DHT22;47065;52.898;6.992;2023-08-12T05:22:48;18.80;99.90
61201;DHT22;47065;52.898;6.992;2023-08-12T05:25:14;18.90;99.90
61201;DHT22;47065;52.898;6.992;2023-08-12T05:27:40;18.90;99.90
61201;DHT22;47065;52.898;6.992;2023-08-12T05:30:07;18.90;99.90
61201;DHT22;47065;52.898;6.992;2023-08-12T05:32:32;18.90;99.90
61201;DHT22;47065;52.898;6.992;2023-08-12T05:34:58;18.90;99.90
61201;DHT22;47065;52.898;6.992;2023-08-12T05:37:24;18.90;99.90
61201;DHT22;47065;52.898;6.992;2023-08-12T05:39:49;19.00;99.90
61201;DHT22;47065;52.898;6.992;2023-08-12T05:42:15;19.00;99.90
61201;DHT22;47065;52.898;6.992;2023-08-12T05:44:41;19.00;99.90
61201;DHT22;47065;52.898;6.992;2023-08-12T05:47:07;19.10;99.90
61201;DHT22;47065;52.898;6.992;2023-08-12T05:49:33;19.10;99.90
61201;DHT22;47065;52.898;6.992;2023-08-12T05:51:59;19.20;99.90
61201;DHT22;47065;52.898;6.992;2023-08-12T05:54:24;19.10;99.90
61201;DHT22;47065;52.898;6.992;2023-08-12T05:56:50;19.20;99.90
61201;DHT22;47065;52.898;6.992;2023-08-12T05:59:16;19.20;99.90
61201;DHT22;47065;52.898;6.992;2023-08-12T06:01:41;19.20;99.90
61201;DHT22;47065;52.898;6.992;2023-08-12T06:04:07;19.30;99.90
61201;DHT22;47065;52.898;6.992;2023-08-12T06:06:32;19.30;99.90
61201;DHT22;47065;52.898;6.992;2023-08-12T06:08:58;19.40;99.90
61201;DHT22;47065;52.898;6.992;2023-08-12T06:11:24;19.40;99.90
61201;DHT22;47065;52.898;6.992;2023-08-12T06:13:49;19.50;99.90
61201;DHT22;47065;52.898;6.992;2023-08-12T06:16:15;19.50;99.90
61201;DHT22;47065;52.898;6.992;2023-08-12T06:18:40;19.60;99.90
61201;DHT22;47065;52.898;6.992;2023-08-12T06:21:06;19.60;99.90
61201;DHT22;47065;52.898;6.992;2023-08-12T06:23:32;19.70;99.90
61201;DHT22;47065;52.898;6.992;2023-08-12T06:25:57;19.80;99.90
61201;DHT22;47065;52.898;6.992;2023-08-12T06:28:23;19.90;99.90
61201;DHT22;47065;52.898;6.992;2023-08-12T06:30:49;20.00;99.90
61201;DHT22;47065;52.898;6.992;2023-08-12T06:33:14;20.10;99.90
61201;DHT22;47065;52.898;6.992;2023-08-12T06:35:41;20.20;99.90
61201;DHT22;47065;52.898;6.992;2023-08-12T06:38:07;20.20;99.90
61201;DHT22;47065;52.898;6.992;2023-08-12T06:40:35;20.30;99.90
61201;DHT22;47065;52.898;6.992;2023-08-12T06:43:01;20.30;99.90
61201;DHT22;47065;52.898;6.992;2023-08-12T06:45:26;20.30;99.90
61201;DHT22;47065;52.898;6.992;2023-08-12T06:47:52;20.30;99.90
61201;DHT22;47065;52.898;6.992;2023-08-12T06:50:18;20.30;99.90
61201;DHT22;47065;52.898;6.992;2023-08-12T06:52:43;20.40;99.90
61201;DHT22;47065;52.898;6.992;2023-08-12T06:55:09;20.40;99.90
61201;DHT22;47065;52.898;6.992;2023-08-12T06:57:34;20.40;99.90
61201;DHT22;47065;52.898;6.992;2023-08-12T07:00:00;20.40;99.90
61201;DHT22;47065;52.898;6.992;2023-08-12T07:02:26;20.40;99.90
61201;DHT22;47065;52.898;6.992;2023-08-12T07:04:51;20.50;99.90
61201;DHT22;47065;52.898;6.992;2023-08-12T07:07:17;20.50;99.90
61201;DHT22;47065;52.898;6.992;2023-08-12T07:09:42;20.50;99.90
61201;DHT22;47065;52.898;6.992;2023-08-12T07:12:08;20.50;99.90
61201;DHT22;47065;52.898;6.992;2023-08-12T07:14:35;20.50;99.90
61201;DHT22;47065;52.898;6.992;2023-08-12T07:17:01;20.60;99.90
61201;DHT22;47065;52.898;6.992;2023-08-12T07:19:26;20.50;99.90
61201;DHT22;47065;52.898;6.992;2023-08-12T07:21:52;20.50;99.90
61201;DHT22;47065;52.898;6.992;2023-08-12T07:24:18;20.60;99.90
61201;DHT22;47065;52.898;6.992;2023-08-12T07:26:43;20.60;99.90
61201;DHT22;47065;52.898;6.992;2023-08-12T07:29:09;20.60;99.90
61201;DHT22;47065;52.898;6.992;2023-08-12T07:31:35;20.60;99.90
61201;DHT22;47065;52.898;6.992;2023-08-12T07:34:00;20.60;99.90
61201;DHT22;47065;52.898;6.992;2023-08-12T07:36:26;20.60;99.90
61201;DHT22;47065;52.898;6.992;2023-08-12T07:38:51;20.60;99.90
61201;DHT22;47065;52.898;6.992;2023-08-12T07:41:17;20.60;99.90
61201;DHT22;47065;52.898;6.992;2023-08-12T07:43:43;20.60;99.90
61201;DHT22;47065;52.898;6.992;2023-08-12T07:46:08;20.60;99.90
61201;DHT22;47065;52.898;6.992;2023-08-12T07:48:34;20.60;99.90
61201;DHT22;47065;52.898;6.992;2023-08-12T07:51:00;20.60;99.90
61201;DHT22;47065;52.898;6.992;2023-08-12T07:53:26;20.60;99.90
61201;DHT22;47065;52.898;6.992;2023-08-12T07:55:51;20.60;99.90
61201;DHT22;47065;52.898;6.992;2023-08-12T07:58:17;20.60;99.90
61201;DHT22;47065;52.898;6.992;2023-08-12T08:00:43;20.50;99.90
61201;DHT22;47065;52.898;6.992;2023-08-12T08:03:09;20.50;99.90
61201;DHT22;47065;52.898;6.992;2023-08-12T08:05:34;20.60;99.90
61201;DHT22;47065;52.898;6.992;2023-08-12T08:08:00;20.50;99.90
61201;DHT22;47065;52.898;6.992;2023-08-12T08:10:26;20.50;99.90
61201;DHT22;47065;52.898;6.992;2023-08-12T08:12:51;20.50;99.90
61201;DHT22;47065;52.898;6.992;2023-08-12T08:15:17;20.40;99.90
61201;DHT22;47065;52.898;6.992;2023-08-12T08:17:43;20.40;99.90
61201;DHT22;47065;52.898;6.992;2023-08-12T08:20:08;20.40;99.90
61201;DHT22;47065;52.898;6.992;2023-08-12T08:22:36;20.40;99.90
61201;DHT22;47065;52.898;6.992;2023-08-12T08:25:02;20.40;99.90
61201;DHT22;47065;52.898;6.992;2023-08-12T08:27:28;20.40;99.90
61201;DHT22;47065;52.898;6.992;2023-08-12T08:29:53;20.30;99.90
61201;DHT22;47065;52.898;6.992;2023-08-12T08:32:19;20.30;99.90
61201;DHT22;47065;52.898;6.992;2023-08-12T08:34:44;20.30;99.90
61201;DHT22;47065;52.898;6.992;2023-08-12T08:37:10;20.30;99.90
61201;DHT22;47065;52.898;6.992;2023-08-12T08:39:36;20.20;99.90
61201;DHT22;47065;52.898;6.992;2023-08-12T08:42:02;20.20;99.90
61201;DHT22;47065;52.898;6.992;2023-08-12T08:44:31;20.20;99.90
61201;DHT22;47065;52.898;6.992;2023-08-12T08:46:58;20.20;99.90
61201;DHT22;47065;52.898;6.992;2023-08-12T08:49:30;20.10;99.90
61201;DHT22;47065;52.898;6.992;2023-08-12T08:51:56;20.10;99.90
61201;DHT22;47065;52.898;6.992;2023-08-12T08:54:22;20.00;99.90
61201;DHT22;47065;52.898;6.992;2023-08-12T08:56:49;19.90;99.90
61201;DHT22;47065;52.898;6.992;2023-08-12T08:59:15;20.00;99.90
61201;DHT22;47065;52.898;6.992;2023-08-12T09:01:42;19.90;99.90
61201;DHT22;47065;52.898;6.992;2023-08-12T09:04:08;19.90;99.90
61201;DHT22;47065;52.898;6.992;2023-08-12T09:06:36;19.90;99.90
61201;DHT22;47065;52.898;6.992;2023-08-12T09:09:02;19.80;99.90
61201;DHT22;47065;52.898;6.992;2023-08-12T09:11:30;19.80;99.90
61201;DHT22;47065;52.898;6.992;2023-08-12T09:13:56;19.80;99.90
61201;DHT22;47065;52.898;6.992;2023-08-12T09:16:22;19.80;99.90
61201;DHT22;47065;52.898;6.992;2023-08-12T09:18:55;19.80;99.90
61201;DHT22;47065;52.898;6.992;2023-08-12T09:21:20;19.80;99.90
61201;DHT22;47065;52.898;6.992;2023-08-12T09:23:46;19.80;99.90
61201;DHT22;47065;52.898;6.992;2023-08-12T09:26:14;19.70;99.90
61201;DHT22;47065;52.898;6.992;2023-08-12T09:28:41;19.80;99.90
61201;DHT22;47065;52.898;6.992;2023-08-12T09:31:07;19.70;99.90
61201;DHT22;47065;52.898;6.992;2023-08-12T09:33:39;19.80;99.90
61201;DHT22;47065;52.898;6.992;2023-08-12T09:36:05;19.70;99.90
61201;DHT22;47065;52.898;6.992;2023-08-12T09:38:31;19.70;99.90
61201;DHT22;47065;52.898;6.992;2023-08-12T09:40:56;19.70;99.90
61201;DHT22;47065;52.898;6.992;2023-08-12T09:43:28;19.70;99.90
61201;DHT22;47065;52.898;6.992;2023-08-12T09:45:56;19.70;99.90
61201;DHT22;47065;52.898;6.992;2023-08-12T09:48:23;19.60;99.90
61201;DHT22;47065;52.898;6.992;2023-08-12T09:50:49;19.60;99.90
61201;DHT22;47065;52.898;6.992;2023-08-12T09:53:15;19.60;99.90
61201;DHT22;47065;52.898;6.992;2023-08-12T09:55:42;19.60;99.90
61201;DHT22;47065;52.898;6.992;2023-08-12T09:58:10;19.60;99.90
61201;DHT22;47065;52.898;6.992;2023-08-12T10:00:36;19.50;99.90
61201;DHT22;47065;52.898;6.992;2023-08-12T10:03:02;19.40;99.90
61201;DHT22;47065;52.898;6.992;2023-08-12T10:05:32;19.40;99.90
61201;DHT22;47065;52.898;6.992;2023-08-12T10:07:58;19.30;99.90
61201;DHT22;47065;52.898;6.992;2023-08-12T10:10:24;19.30;99.90
61201;DHT22;47065;52.898;6.992;2023-08-12T10:12:51;19.30;99.90
61201;DHT22;47065;52.898;6.992;2023-08-12T10:15:17;19.20;99.90
61201;DHT22;47065;52.898;6.992;2023-08-12T10:17:43;19.20;99.90
61201;DHT22;47065;52.898;6.992;2023-08-12T10:20:13;19.20;99.90
61201;DHT22;47065;52.898;6.992;2023-08-12T10:22:39;19.20;99.90
61201;DHT22;47065;52.898;6.992;2023-08-12T10:25:07;19.10;99.90
61201;DHT22;47065;52.898;6.992;2023-08-12T10:27:34;19.20;99.90
61201;DHT22;47065;52.898;6.992;2023-08-12T10:30:03;19.20;99.90
61201;DHT22;47065;52.898;6.992;2023-08-12T10:32:31;19.20;99.90
61201;DHT22;47065;52.898;6.992;2023-08-12T10:34:57;19.10;99.90
61201;DHT22;47065;52.898;6.992;2023-08-12T10:37:24;19.10;99.90
61201;DHT22;47065;52.898;6.992;2023-08-12T10:39:54;19.10;99.90
61201;DHT22;47065;52.898;6.992;2023-08-12T10:42:39;19.20;99.90
61201;DHT22;47065;52.898;6.992;2023-08-12T10:45:05;19.10;99.90
61201;DHT22;47065;52.898;6.992;2023-08-12T10:47:31;19.10;99.90
61201;DHT22;47065;52.898;6.992;2023-08-12T10:49:58;19.10;99.90
61201;DHT22;47065;52.898;6.992;2023-08-12T10:52:31;19.20;99.90
61201;DHT22;47065;52.898;6.992;2023-08-12T10:55:20;19.20;99.90
61201;DHT22;47065;52.898;6.992;2023-08-12T10:57:47;19.20;99.90
61201;DHT22;47065;52.898;6.992;2023-08-12T11:00:24;19.20;99.90
61201;DHT22;47065;52.898;6.992;2023-08-12T11:02:51;19.20;99.90
61201;DHT22;47065;52.898;6.992;2023-08-12T11:05:18;19.20;99.90
61201;DHT22;47065;52.898;6.992;2023-08-12T11:10:20;19.20;99.90
61201;DHT22;47065;52.898;6.992;2023-08-12T11:12:53;19.20;99.90
61201;DHT22;47065;52.898;6.992;2023-08-12T11:15:30;19.30;99.90
61201;DHT22;47065;52.898;6.992;2023-08-12T11:17:58;19.40;99.90
61201;DHT22;47065;52.898;6.992;2023-08-12T11:20:25;19.40;99.90
61201;DHT22;47065;52.898;6.992;2023-08-12T11:22:53;19.50;99.90
61201;DHT22;47065;52.898;6.992;2023-08-12T11:25:19;19.50;99.90
61201;DHT22;47065;52.898;6.992;2023-08-12T11:27:46;19.50;99.90
61201;DHT22;47065;52.898;6.992;2023-08-12T11:30:19;19.70;99.90
61201;DHT22;47065;52.898;6.992;2023-08-12T11:32:50;19.80;99.90
61201;DHT22;47065;52.898;6.992;2023-08-12T11:35:16;19.90;99.90
61201;DHT22;47065;52.898;6.992;2023-08-12T11:37:45;20.00;99.90
61201;DHT22;47065;52.898;6.992;2023-08-12T11:40:13;20.10;99.90
61201;DHT22;47065;52.898;6.992;2023-08-12T11:42:45;20.20;99.90
61201;DHT22;47065;52.898;6.992;2023-08-12T11:45:11;20.30;99.90
61201;DHT22;47065;52.898;6.992;2023-08-12T11:47:41;20.20;99.90
61201;DHT22;47065;52.898;6.992;2023-08-12T11:50:08;20.20;99.90
61201;DHT22;47065;52.898;6.992;2023-08-12T11:52:35;20.10;99.90
61201;DHT22;47065;52.898;6.992;2023-08-12T11:55:01;20.10;99.90
61201;DHT22;47065;52.898;6.992;2023-08-12T11:57:27;20.10;99.90
61201;DHT22;47065;52.898;6.992;2023-08-12T12:00:07;20.10;99.90
61201;DHT22;47065;52.898;6.992;2023-08-12T12:02:54;20.00;99.90
61201;DHT22;47065;52.898;6.992;2023-08-12T12:05:23;19.90;99.90
61201;DHT22;47065;52.898;6.992;2023-08-12T12:07:51;19.90;99.90
61201;DHT22;47065;52.898;6.992;2023-08-12T12:12:55;19.80;99.90
61201;DHT22;47065;52.898;6.992;2023-08-12T12:15:21;19.70;99.90
61201;DHT22;47065;52.898;6.992;2023-08-12T12:17:49;19.70;99.90
61201;DHT22;47065;52.898;6.992;2023-08-12T12:20:15;19.70;99.90
61201;DHT22;47065;52.898;6.992;2023-08-12T12:22:43;19.80;99.90
61201;DHT22;47065;52.898;6.992;2023-08-12T12:25:11;19.90;99.90
61201;DHT22;47065;52.898;6.992;2023-08-12T12:27:38;20.00;99.90
61201;DHT22;47065;52.898;6.992;2023-08-12T12:30:08;20.20;99.90
61201;DHT22;47065;52.898;6.992;2023-08-12T12:32:35;20.40;99.90
61201;DHT22;47065;52.898;6.992;2023-08-12T12:35:01;20.40;99.90
61201;DHT22;47065;52.898;6.992;2023-08-12T12:37:27;20.50;99.90
61201;DHT22;47065;52.898;6.992;2023-08-12T12:39:53;20.50;99.90
61201;DHT22;47065;52.898;6.992;2023-08-12T12:42:19;20.50;99.90
61201;DHT22;47065;52.898;6.992;2023-08-12T12:44:44;20.40;99.90
61201;DHT22;47065;52.898;6.992;2023-08-12T12:47:10;20.30;99.90
61201;DHT22;47065;52.898;6.992;2023-08-12T12:49:38;20.30;99.90
61201;DHT22;47065;52.898;6.992;2023-08-12T12:52:04;20.30;99.90
61201;DHT22;47065;52.898;6.992;2023-08-12T12:54:30;20.40;99.90
61201;DHT22;47065;52.898;6.992;2023-08-12T12:56:56;20.50;99.90
61201;DHT22;47065;52.898;6.992;2023-08-12T12:59:22;20.60;99.90
61201;DHT22;47065;52.898;6.992;2023-08-12T13:01:48;20.60;99.90
61201;DHT22;47065;52.898;6.992;2023-08-12T13:04:14;20.50;99.90
61201;DHT22;47065;52.898;6.992;2023-08-12T13:06:40;20.50;99.90
61201;DHT22;47065;52.898;6.992;2023-08-12T13:09:05;20.40;99.90
61201;DHT22;47065;52.898;6.992;2023-08-12T13:11:32;20.30;99.90
61201;DHT22;47065;52.898;6.992;2023-08-12T13:14:00;20.40;99.90
61201;DHT22;47065;52.898;6.992;2023-08-12T13:16:25;20.50;99.90
61201;DHT22;47065;52.898;6.992;2023-08-12T13:18:51;20.70;99.90
61201;DHT22;47065;52.898;6.992;2023-08-12T13:21:17;20.80;99.90
61201;DHT22;47065;52.898;6.992;2023-08-12T13:23:42;20.90;99.90
61201;DHT22;47065;52.898;6.992;2023-08-12T13:26:08;21.00;99.90
61201;DHT22;47065;52.898;6.992;2023-08-12T13:28:33;21.10;99.90
61201;DHT22;47065;52.898;6.992;2023-08-12T13:30:59;21.10;99.90
61201;DHT22;47065;52.898;6.992;2023-08-12T13:33:25;21.00;99.90
61201;DHT22;47065;52.898;6.992;2023-08-12T13:35:50;20.80;99.90
61201;DHT22;47065;52.898;6.992;2023-08-12T13:38:16;20.60;99.90
61201;DHT22;47065;52.898;6.992;2023-08-12T13:40:42;20.40;99.90
61201;DHT22;47065;52.898;6.992;2023-08-12T13:43:07;20.30;99.90
61201;DHT22;47065;52.898;6.992;2023-08-12T13:45:33;20.30;99.90
61201;DHT22;47065;52.898;6.992;2023-08-12T13:47:59;20.40;99.90
61201;DHT22;47065;52.898;6.992;2023-08-12T13:50:24;20.50;99.90
61201;DHT22;47065;52.898;6.992;2023-08-12T13:52:50;20.50;99.90
61201;DHT22;47065;52.898;6.992;2023-08-12T13:55:16;20.40;99.90
61201;DHT22;47065;52.898;6.992;2023-08-12T13:57:41;20.30;99.90
61201;DHT22;47065;52.898;6.992;2023-08-12T14:00:08;20.30;99.90
61201;DHT22;47065;52.898;6.992;2023-08-12T14:02:38;20.20;99.90
61201;DHT22;47065;52.898;6.992;2023-08-12T14:05:04;20.30;99.90
61201;DHT22;47065;52.898;6.992;2023-08-12T14:07:30;20.30;99.90
61201;DHT22;47065;52.898;6.992;2023-08-12T14:09:56;20.30;99.90
61201;DHT22;47065;52.898;6.992;2023-08-12T14:12:22;20.30;99.90
61201;DHT22;47065;52.898;6.992;2023-08-12T14:14:47;20.40;99.90
61201;DHT22;47065;52.898;6.992;2023-08-12T14:17:14;20.40;99.90
61201;DHT22;47065;52.898;6.992;2023-08-12T14:19:44;20.50;99.90
61201;DHT22;47065;52.898;6.992;2023-08-12T14:22:13;20.50;99.90
61201;DHT22;47065;52.898;6.992;2023-08-12T14:24:38;20.60;99.90
61201;DHT22;47065;52.898;6.992;2023-08-12T14:27:04;20.60;99.90
61201;DHT22;47065;52.898;6.992;2023-08-12T14:29:30;20.70;99.90
61201;DHT22;47065;52.898;6.992;2023-08-12T14:31:56;20.80;99.90
61201;DHT22;47065;52.898;6.992;2023-08-12T14:34:22;20.90;99.90
61201;DHT22;47065;52.898;6.992;2023-08-12T14:36:47;20.90;99.90
61201;DHT22;47065;52.898;6.992;2023-08-12T14:39:13;20.90;99.90
61201;DHT22;47065;52.898;6.992;2023-08-12T14:41:39;21.00;99.90
61201;DHT22;47065;52.898;6.992;2023-08-12T14:44:05;21.00;99.90
61201;DHT22;47065;52.898;6.992;2023-08-12T14:46:30;21.00;99.90
61201;DHT22;47065;52.898;6.992;2023-08-12T14:48:56;21.00;99.90
61201;DHT22;47065;52.898;6.992;2023-08-12T14:51:22;21.00;99.90
61201;DHT22;47065;52.898;6.992;2023-08-12T14:53:48;21.10;99.90
61201;DHT22;47065;52.898;6.992;2023-08-12T14:56:14;21.10;99.90
61201;DHT22;47065;52.898;6.992;2023-08-12T14:58:39;21.20;99.90
61201;DHT22;47065;52.898;6.992;2023-08-12T15:01:05;21.20;99.90
61201;DHT22;47065;52.898;6.992;2023-08-12T15:03:32;21.30;99.90
61201;DHT22;47065;52.898;6.992;2023-08-12T15:06:02;21.50;99.90
61201;DHT22;47065;52.898;6.992;2023-08-12T15:08:29;21.60;99.90
61201;DHT22;47065;52.898;6.992;2023-08-12T15:10:55;21.60;99.90
61201;DHT22;47065;52.898;6.992;2023-08-12T15:13:21;21.70;99.90
61201;DHT22;47065;52.898;6.992;2023-08-12T15:15:48;21.80;99.90
61201;DHT22;47065;52.898;6.992;2023-08-12T15:18:14;22.00;99.90
61201;DHT22;47065;52.898;6.992;2023-08-12T15:20:40;22.10;99.90
61201;DHT22;47065;52.898;6.992;2023-08-12T15:23:06;22.10;99.90
61201;DHT22;47065;52.898;6.992;2023-08-12T15:25:31;22.10;99.90
61201;DHT22;47065;52.898;6.992;2023-08-12T15:27:57;22.10;99.90
61201;DHT22;47065;52.898;6.992;2023-08-12T15:30:23;22.10;99.90